Time;durP1;ratioP1;P1;durP2;ratioP2;P2;SDS_P1;SDS_P2;PMS_P1;PMS_P2;Temp;Humidity;BMP_temperature;BMP_pressure;BME280_temperature;BME280_humidity;BME280_pressure;Samples;Min_cycle;Max_cycle;Signal;HPM_P1;HPM_P2
2022/07/05 00:00:10;;;;;;;3.75;2.50;;;16.90;99.90;;;;;;5097017;28;20173;-69
2022/07/05 00:02:36;;;;;;;4.03;2.78;;;16.80;99.90;;;;;;5095806;28;20213;-69
2022/07/05 00:05:03;;;;;;;4.70;2.90;;;16.70;99.90;;;;;;5097566;28;20196;-69
2022/07/05 00:07:28;;;;;;;3.42;2.70;;;16.60;99.90;;;;;;5095679;28;20242;-69
2022/07/05 00:09:57;;;;;;;3.35;2.88;;;16.40;99.90;;;;;;5095850;28;20166;-69
2022/07/05 00:12:26;;;;;;;4.38;2.95;;;16.30;99.90;;;;;;5095805;28;20611;-69
2022/07/05 00:14:52;;;;;;;3.78;3.00;;;16.20;99.90;;;;;;5097340;28;20177;-69
2022/07/05 00:17:17;;;;;;;3.90;3.38;;;16.20;99.90;;;;;;5097400;28;20692;-69
2022/07/05 00:19:43;;;;;;;5.45;2.80;;;16.20;99.90;;;;;;5096095;28;20253;-69
2022/07/05 00:22:09;;;;;;;2.75;2.55;;;16.20;99.90;;;;;;5096834;28;20345;-69
2022/07/05 00:24:35;;;;;;;6.13;2.90;;;16.20;99.90;;;;;;5096903;28;20169;-69
2022/07/05 00:27:01;;;;;;;2.78;2.58;;;16.10;99.90;;;;;;5096817;28;20169;-69
2022/07/05 00:29:27;;;;;;;4.00;2.78;;;16.10;99.90;;;;;;5096543;28;20200;-69
2022/07/05 00:31:53;;;;;;;4.75;3.22;;;16.00;99.90;;;;;;5095768;28;20261;-69
2022/07/05 00:34:19;;;;;;;3.05;2.75;;;16.00;99.90;;;;;;5097904;28;20177;-69
2022/07/05 00:36:45;;;;;;;4.13;3.20;;;16.00;99.90;;;;;;5097572;28;20594;-69
2022/07/05 00:39:12;;;;;;;3.88;3.25;;;15.90;99.90;;;;;;5096181;28;20268;-69
2022/07/05 00:41:37;;;;;;;3.60;3.20;;;15.80;99.90;;;;;;5097091;28;20246;-69
2022/07/05 00:44:06;;;;;;;5.47;3.47;;;15.70;99.90;;;;;;5097142;28;20169;-69
2022/07/05 00:46:33;;;;;;;3.10;2.80;;;15.50;99.90;;;;;;5096494;28;20218;-69
2022/07/05 00:49:00;;;;;;;6.78;3.05;;;15.50;99.90;;;;;;5096553;28;20601;-69
2022/07/05 00:51:28;;;;;;;4.20;2.90;;;15.60;99.90;;;;;;5095303;28;20717;-69
2022/07/05 00:53:54;;;;;;;3.97;3.20;;;15.60;99.90;;;;;;5095348;28;20181;-69
2022/07/05 00:56:20;;;;;;;4.13;3.22;;;15.60;99.90;;;;;;5096782;28;20184;-69
2022/07/05 00:58:46;;;;;;;3.95;3.03;;;15.60;99.90;;;;;;5096335;28;20228;-69
2022/07/05 01:01:12;;;;;;;6.47;3.90;;;15.60;99.90;;;;;;5095753;28;20224;-69
2022/07/05 01:03:38;;;;;;;2.97;2.75;;;15.60;99.90;;;;;;5096302;28;20172;-69
2022/07/05 01:06:09;;;;;;;4.35;3.35;;;15.50;99.90;;;;;;5095352;28;20549;-70
2022/07/05 01:08:38;;;;;;;3.40;3.10;;;15.50;99.90;;;;;;5096448;28;20193;-69
2022/07/05 01:11:04;;;;;;;5.40;3.47;;;15.40;99.90;;;;;;5095012;28;20260;-69
2022/07/05 01:13:30;;;;;;;3.53;3.22;;;15.30;99.90;;;;;;5096214;28;20173;-69
2022/07/05 01:15:56;;;;;;;3.90;3.22;;;15.20;99.90;;;;;;5095940;28;20177;-69
2022/07/05 01:18:22;;;;;;;4.90;3.40;;;15.20;99.90;;;;;;5095777;28;20588;-69
2022/07/05 01:20:51;;;;;;;4.57;3.40;;;15.10;99.90;;;;;;5096647;28;20614;-69
2022/07/05 01:23:18;;;;;;;3.88;3.42;;;15.10;99.90;;;;;;5096201;28;20169;-69
2022/07/05 01:25:48;;;;;;;5.40;3.58;;;15.10;99.90;;;;;;5094627;28;20634;-69
2022/07/05 01:28:15;;;;;;;3.85;3.35;;;15.10;99.90;;;;;;5095859;28;20213;-69
2022/07/05 01:30:42;;;;;;;4.13;3.38;;;15.10;99.90;;;;;;5095565;28;20227;-69
2022/07/05 01:33:09;;;;;;;3.10;2.80;;;15.00;99.90;;;;;;5094340;28;20203;-69
2022/07/05 01:35:35;;;;;;;3.65;3.10;;;15.00;99.90;;;;;;5094366;28;20177;-69
2022/07/05 01:38:01;;;;;;;5.28;2.92;;;15.10;99.90;;;;;;5096260;28;20225;-68
2022/07/05 01:40:27;;;;;;;3.50;3.20;;;15.00;99.90;;;;;;5096162;28;20197;-70
2022/07/05 01:42:53;;;;;;;3.03;2.72;;;15.10;99.90;;;;;;5094470;28;20212;-69
2022/07/05 01:45:52;;;;;;;3.50;3.15;;;15.10;99.90;;;;;;5095387;28;20177;-70
2022/07/05 01:48:19;;;;;;;3.97;3.58;;;15.00;99.90;;;;;;5095136;28;20201;-69
2022/07/05 01:51:19;;;;;;;3.13;2.70;;;14.90;99.90;;;;;;5095093;28;20189;-69
2022/07/05 01:53:49;;;;;;;4.35;3.45;;;14.80;99.90;;;;;;5060224;28;20193;-69
2022/07/05 01:56:14;;;;;;;3.80;3.28;;;14.70;99.90;;;;;;5095187;28;20173;-68
2022/07/05 01:58:41;;;;;;;7.32;3.72;;;14.80;99.90;;;;;;5094823;28;20192;-68
2022/07/05 02:01:07;;;;;;;4.78;3.30;;;14.70;99.90;;;;;;5093315;28;20209;-69
2022/07/05 02:03:32;;;;;;;3.40;3.10;;;14.80;99.90;;;;;;5093598;28;20653;-70
2022/07/05 02:05:58;;;;;;;3.92;3.42;;;14.70;99.90;;;;;;5094801;28;20691;-70
2022/07/05 02:08:29;;;;;;;4.78;3.60;;;14.60;99.90;;;;;;5095046;28;20185;-70
2022/07/05 02:10:55;;;;;;;4.60;3.60;;;14.50;99.90;;;;;;5093477;28;20264;-70
2022/07/05 02:13:21;;;;;;;4.45;3.53;;;14.50;99.90;;;;;;5092592;28;20253;-70
2022/07/05 02:15:47;;;;;;;4.65;3.83;;;14.40;99.90;;;;;;5094522;28;20181;-70
2022/07/05 02:18:13;;;;;;;4.60;3.70;;;14.40;99.90;;;;;;5094426;28;20693;-70
2022/07/05 02:20:39;;;;;;;4.75;3.72;;;14.30;99.90;;;;;;5094371;28;20241;-70
2022/07/05 02:23:06;;;;;;;4.65;3.67;;;14.30;99.90;;;;;;5094773;28;20633;-70
2022/07/05 02:25:31;;;;;;;6.00;3.60;;;14.30;99.90;;;;;;5094504;28;20177;-70
2022/07/05 02:27:57;;;;;;;6.38;4.18;;;14.30;99.90;;;;;;5094446;28;20681;-69
2022/07/05 02:30:23;;;;;;;5.93;4.15;;;14.40;99.90;;;;;;5093015;28;20199;-70
2022/07/05 02:32:49;;;;;;;4.80;4.30;;;14.30;99.90;;;;;;5094589;28;20176;-69
2022/07/05 02:35:15;;;;;;;6.30;4.20;;;14.30;99.90;;;;;;5094311;28;20174;-70
2022/07/05 02:37:41;;;;;;;4.35;3.95;;;14.20;99.90;;;;;;5094183;28;20228;-69
2022/07/05 02:40:09;;;;;;;5.15;4.13;;;14.20;99.90;;;;;;5094148;28;20177;-69
2022/07/05 02:42:34;;;;;;;4.50;4.05;;;14.30;99.90;;;;;;5094300;28;20704;-70
2022/07/05 02:45:00;;;;;;;5.20;3.83;;;14.30;99.90;;;;;;5092556;28;20177;-69
2022/07/05 02:47:28;;;;;;;6.55;4.32;;;14.30;99.90;;;;;;5093937;28;20267;-69
2022/07/05 02:49:54;;;;;;;5.63;4.57;;;14.30;99.90;;;;;;5093964;28;20177;-69
2022/07/05 02:52:20;;;;;;;5.30;4.47;;;14.30;99.90;;;;;;5092676;28;20653;-70
2022/07/05 02:54:46;;;;;;;4.28;3.65;;;14.30;99.90;;;;;;5092611;28;20181;-70
2022/07/05 02:57:11;;;;;;;6.07;4.32;;;14.30;99.90;;;;;;5092571;28;20232;-70
2022/07/05 02:59:37;;;;;;;4.95;3.97;;;14.30;99.90;;;;;;5093966;28;20214;-70
2022/07/05 03:02:03;;;;;;;5.90;4.18;;;14.30;99.90;;;;;;5092550;28;20196;-69
2022/07/05 03:04:29;;;;;;;5.82;3.80;;;14.20;99.90;;;;;;5093837;28;20165;-69
2022/07/05 03:06:54;;;;;;;7.57;4.00;;;14.20;99.90;;;;;;5093742;28;20170;-69
2022/07/05 03:09:20;;;;;;;5.95;4.05;;;14.20;99.90;;;;;;5094493;28;20172;-69
2022/07/05 03:11:46;;;;;;;6.10;3.72;;;14.20;99.90;;;;;;5092623;28;20177;-69
2022/07/05 03:14:11;;;;;;;3.90;3.45;;;14.10;99.90;;;;;;5092720;28;20184;-69
2022/07/05 03:16:38;;;;;;;6.95;3.85;;;14.20;99.90;;;;;;5093838;28;20184;-69
2022/07/05 03:19:04;;;;;;;6.03;3.90;;;14.20;99.90;;;;;;5094501;28;20279;-69
2022/07/05 03:21:30;;;;;;;4.93;3.65;;;14.20;99.90;;;;;;5093956;28;20228;-68
2022/07/05 03:23:55;;;;;;;8.68;3.72;;;14.20;99.90;;;;;;5098289;28;20673;-69
2022/07/05 03:26:21;;;;;;;5.40;3.97;;;14.20;99.90;;;;;;5101844;28;20538;-69
2022/07/05 03:28:47;;;;;;;5.60;3.47;;;14.20;99.90;;;;;;5101768;28;20537;-69
2022/07/05 03:31:12;;;;;;;7.55;4.13;;;14.20;99.90;;;;;;5101054;28;20164;-69
2022/07/05 03:33:38;;;;;;;5.32;4.10;;;14.20;99.90;;;;;;5099722;28;20188;-69
2022/07/05 03:36:04;;;;;;;4.43;3.65;;;14.20;99.90;;;;;;5101101;28;20172;-69
2022/07/05 03:38:30;;;;;;;4.40;3.65;;;14.10;99.90;;;;;;5100718;28;20246;-69
2022/07/05 03:40:55;;;;;;;4.65;3.22;;;14.10;99.90;;;;;;5099446;28;20232;-69
2022/07/05 03:43:21;;;;;;;6.97;3.85;;;14.20;99.90;;;;;;5101175;28;20217;-69
2022/07/05 03:45:47;;;;;;;5.20;3.50;;;14.20;99.90;;;;;;5099910;28;20172;-69
2022/07/05 03:48:13;;;;;;;6.45;4.10;;;14.30;99.90;;;;;;5100239;28;20231;-70
2022/07/05 03:50:38;;;;;;;5.68;4.40;;;14.30;99.90;;;;;;5100103;28;20212;-69
2022/07/05 03:53:04;;;;;;;5.40;4.13;;;14.30;99.90;;;;;;5100195;28;20247;-72
2022/07/05 03:55:30;;;;;;;5.35;4.10;;;14.30;99.90;;;;;;5100093;28;20177;-72
2022/07/05 03:57:56;;;;;;;4.60;3.83;;;14.30;99.90;;;;;;5100095;28;20188;-72
2022/07/05 04:00:21;;;;;;;5.30;3.78;;;14.30;99.90;;;;;;5098687;28;20179;-71
2022/07/05 04:02:47;;;;;;;4.00;3.60;;;14.20;99.90;;;;;;5098715;28;20224;-72
2022/07/05 04:05:13;;;;;;;8.20;4.40;;;14.10;99.90;;;;;;5100238;28;20169;-72
2022/07/05 04:07:52;;;;;;;4.43;3.92;;;14.10;99.90;;;;;;5100295;28;20254;-72
2022/07/05 04:10:19;;;;;;;5.65;4.20;;;14.00;99.90;;;;;;5100166;28;20210;-72
2022/07/05 04:12:45;;;;;;;4.65;3.92;;;14.00;99.90;;;;;;5100506;28;20522;-72
2022/07/05 04:15:11;;;;;;;6.45;4.30;;;14.00;99.90;;;;;;5099936;28;20177;-72
2022/07/05 04:17:55;;;;;;;5.93;4.38;;;14.10;99.90;;;;;;5099857;28;20208;-70
2022/07/05 04:20:22;;;;;;;7.63;4.53;;;14.10;99.90;;;;;;5098504;28;20197;-70
2022/07/05 04:22:51;;;;;;;4.90;4.07;;;14.10;99.90;;;;;;5098479;28;20257;-70
2022/07/05 04:25:18;;;;;;;6.38;4.32;;;14.10;99.90;;;;;;5098677;28;20204;-70
2022/07/05 04:27:47;;;;;;;7.63;4.53;;;14.00;99.90;;;;;;5100077;28;20315;-71
2022/07/05 04:30:13;;;;;;;5.25;4.35;;;14.00;99.90;;;;;;5098317;28;20211;-70
2022/07/05 04:32:39;;;;;;;5.45;4.80;;;14.10;99.90;;;;;;5100074;28;20574;-70
2022/07/05 04:35:05;;;;;;;7.65;4.35;;;14.20;99.90;;;;;;5097633;28;20258;-70
2022/07/05 04:37:32;;;;;;;6.50;4.40;;;14.20;99.90;;;;;;5095186;28;20225;-70
2022/07/05 04:39:57;;;;;;;4.55;4.13;;;14.20;99.90;;;;;;5096493;28;20235;-70
2022/07/05 04:42:23;;;;;;;4.55;4.10;;;14.30;99.90;;;;;;5096704;28;20619;-70
2022/07/05 04:44:49;;;;;;;6.00;4.30;;;14.30;99.90;;;;;;5096351;28;20511;-70
2022/07/05 04:47:14;;;;;;;7.78;4.57;;;14.40;99.90;;;;;;5095994;28;20197;-70
2022/07/05 04:49:40;;;;;;;4.65;4.10;;;14.30;99.90;;;;;;5096481;28;20200;-70
2022/07/05 04:52:06;;;;;;;6.70;4.72;;;14.40;99.90;;;;;;5096256;28;20199;-69
2022/07/05 04:54:32;;;;;;;6.85;4.20;;;14.50;99.90;;;;;;5094930;28;20177;-70
2022/07/05 04:56:58;;;;;;;6.85;4.63;;;14.50;99.90;;;;;;5096101;28;20165;-70
2022/07/05 04:59:23;;;;;;;5.93;4.85;;;14.50;99.90;;;;;;5096105;28;20251;-70
2022/07/05 05:01:49;;;;;;;7.50;4.70;;;14.60;99.90;;;;;;5094487;28;20201;-70
2022/07/05 05:04:15;;;;;;;5.57;4.43;;;14.70;99.90;;;;;;5095991;28;20169;-70
2022/07/05 05:06:41;;;;;;;5.10;4.32;;;14.80;99.90;;;;;;5096160;28;20169;-70
2022/07/05 05:09:06;;;;;;;4.82;4.32;;;14.80;99.90;;;;;;5096414;28;20192;-70
2022/07/05 05:11:32;;;;;;;5.40;4.50;;;14.90;99.90;;;;;;5095822;28;20303;-70
2022/07/05 05:13:58;;;;;;;11.95;4.78;;;15.00;99.90;;;;;;5096065;28;20214;-70
2022/07/05 05:16:24;;;;;;;6.15;4.53;;;15.10;99.90;;;;;;5095693;28;20646;-70
2022/07/05 05:18:49;;;;;;;8.40;4.45;;;15.20;99.90;;;;;;5095567;28;20693;-70
2022/07/05 05:21:15;;;;;;;5.95;4.95;;;15.20;99.90;;;;;;5094592;28;20278;-70
2022/07/05 05:23:41;;;;;;;5.63;4.20;;;15.20;99.90;;;;;;5096215;28;20180;-70
2022/07/05 05:26:07;;;;;;;6.60;4.97;;;15.20;99.90;;;;;;5096050;28;20189;-70
2022/07/05 05:28:33;;;;;;;4.50;3.80;;;15.20;99.90;;;;;;5096875;28;20189;-69
2022/07/05 05:30:59;;;;;;;5.93;4.50;;;15.40;99.90;;;;;;5095531;28;20177;-70
2022/07/05 05:33:25;;;;;;;7.25;4.65;;;15.50;99.90;;;;;;5094135;28;20223;-70
2022/07/05 05:35:50;;;;;;;6.07;4.32;;;15.60;99.90;;;;;;5095331;28;20188;-70
2022/07/05 05:38:16;;;;;;;7.10;4.53;;;15.60;99.90;;;;;;5095175;28;20197;-70
2022/07/05 05:40:44;;;;;;;8.32;4.65;;;15.60;99.90;;;;;;5093828;28;20259;-70
2022/07/05 05:43:10;;;;;;;8.68;4.70;;;15.50;99.90;;;;;;5093975;28;20241;-70
2022/07/05 05:45:36;;;;;;;8.27;5.07;;;15.50;99.90;;;;;;5094934;28;20533;-70
2022/07/05 05:48:02;;;;;;;6.47;4.70;;;15.50;99.90;;;;;;5092685;28;20201;-70
2022/07/05 05:50:36;;;;;;;9.68;5.13;;;15.60;99.90;;;;;;5095433;28;20177;-70
2022/07/05 05:53:02;;;;;;;5.53;4.50;;;15.60;99.90;;;;;;5093890;28;20221;-70
2022/07/05 05:55:29;;;;;;;9.32;5.30;;;15.70;99.90;;;;;;5095122;28;20177;-70
2022/07/05 05:57:59;;;;;;;10.18;5.68;;;15.80;99.90;;;;;;5093577;28;20291;-70
2022/07/05 06:00:25;;;;;;;6.35;5.15;;;15.90;99.90;;;;;;5095132;28;20636;-70
2022/07/05 06:02:51;;;;;;;6.80;4.90;;;16.10;99.90;;;;;;5093427;28;20696;-70
2022/07/05 06:05:17;;;;;;;6.60;5.05;;;16.30;99.90;;;;;;5093615;28;20188;-70
2022/07/05 06:07:50;;;;;;;7.38;5.43;;;16.40;99.90;;;;;;5094884;28;20196;-70
2022/07/05 06:10:22;;;;;;;8.05;5.45;;;16.50;99.90;;;;;;5093487;28;20173;-70
2022/07/05 06:12:49;;;;;;;6.82;5.20;;;16.70;99.90;;;;;;5094796;28;20205;-70
2022/07/05 06:15:16;;;;;;;12.80;6.82;;;16.80;99.90;;;;;;5094886;28;20176;-70
2022/07/05 06:17:43;;;;;;;9.02;5.82;;;17.00;99.90;;;;;;5093279;28;20572;-70
2022/07/05 06:20:12;;;;;;;12.30;5.80;;;17.10;99.90;;;;;;5094599;28;20189;-70
2022/07/05 06:22:39;;;;;;;13.07;5.53;;;17.30;99.90;;;;;;5094545;28;20196;-70
2022/07/05 06:25:05;;;;;;;10.48;5.80;;;17.50;99.90;;;;;;5093624;28;20212;-70
2022/07/05 06:27:31;;;;;;;8.75;5.90;;;17.60;99.90;;;;;;5095747;28;20670;-70
2022/07/05 06:29:57;;;;;;;9.27;5.30;;;17.70;99.90;;;;;;5094596;28;20191;-70
2022/07/05 06:32:24;;;;;;;10.23;5.82;;;17.80;99.90;;;;;;5096111;28;20164;-70
2022/07/05 06:34:50;;;;;;;6.93;5.43;;;17.70;99.90;;;;;;5096073;28;20169;-70
2022/07/05 06:37:15;;;;;;;11.98;6.20;;;17.70;99.90;;;;;;5095784;28;20729;-70
2022/07/05 06:39:41;;;;;;;8.10;5.15;;;17.70;99.90;;;;;;5096303;28;20196;-70
2022/07/05 06:42:07;;;;;;;11.85;5.25;;;17.80;99.90;;;;;;5095550;28;20279;-70
2022/07/05 06:44:33;;;;;;;7.40;4.93;;;17.90;99.90;;;;;;5095906;28;20165;-70
2022/07/05 06:46:59;;;;;;;10.00;5.97;;;18.00;99.90;;;;;;5094103;28;20180;-70
2022/07/05 06:49:24;;;;;;;8.48;4.97;;;18.10;99.90;;;;;;5094272;28;20657;-70
2022/07/05 06:51:50;;;;;;;8.25;5.63;;;18.20;99.90;;;;;;5096038;28;20173;-70
2022/07/05 06:54:16;;;;;;;6.88;5.50;;;18.20;99.90;;;;;;5094480;28;20187;-70
2022/07/05 06:56:42;;;;;;;9.80;5.22;;;18.20;99.90;;;;;;5095816;28;20641;-70
2022/07/05 06:59:07;;;;;;;9.30;4.90;;;18.20;99.90;;;;;;5095921;28;20200;-70
2022/07/05 07:01:33;;;;;;;10.38;5.15;;;18.20;99.90;;;;;;5096810;28;20193;-70
2022/07/05 07:03:59;;;;;;;7.15;4.75;;;18.40;99.90;;;;;;5096233;28;20219;-70
2022/07/05 07:06:24;;;;;;;5.63;4.10;;;18.40;99.90;;;;;;5095667;28;20630;-70
2022/07/05 07:11:35;;;;;;;8.90;4.60;;;18.50;99.90;;;;;;5095874;28;20593;-70
2022/07/05 07:14:01;;;;;;;8.82;5.07;;;18.50;99.90;;;;;;5093966;28;20185;-70
2022/07/05 07:16:26;;;;;;;7.50;5.15;;;18.50;99.90;;;;;;5094845;28;20188;-70
2022/07/05 07:18:52;;;;;;;7.53;4.05;;;18.60;99.90;;;;;;5093364;28;20358;-70
2022/07/05 07:21:18;;;;;;;6.82;3.80;;;18.60;99.90;;;;;;5093395;28;20204;-70
2022/07/05 07:23:44;;;;;;;6.60;3.65;;;18.60;99.90;;;;;;5093816;28;20587;-70
2022/07/05 07:26:10;;;;;;;5.43;3.65;;;18.70;99.90;;;;;;5093638;28;20675;-70
2022/07/05 07:28:35;;;;;;;4.85;2.92;;;18.90;99.90;;;;;;5095240;28;20284;-70
2022/07/05 07:31:01;;;;;;;4.88;3.28;;;19.00;99.90;;;;;;5094534;28;20173;-70
2022/07/05 07:33:27;;;;;;;6.40;3.58;;;19.10;99.90;;;;;;5094480;28;20177;-70
2022/07/05 07:35:53;;;;;;;6.03;3.47;;;19.10;99.90;;;;;;5095007;28;20153;-70
2022/07/05 07:38:19;;;;;;;3.85;2.83;;;19.20;99.90;;;;;;5094627;28;20246;-70
2022/07/05 07:40:44;;;;;;;5.90;3.83;;;19.20;99.90;;;;;;5094221;28;20251;-70
2022/07/05 07:43:10;;;;;;;5.55;3.25;;;19.20;99.90;;;;;;5095242;28;20173;-70
2022/07/05 07:45:36;;;;;;;4.50;2.90;;;19.20;99.90;;;;;;5094898;28;20170;-70
2022/07/05 07:48:02;;;;;;;6.25;3.05;;;19.30;99.90;;;;;;5093467;28;20250;-70
2022/07/05 07:50:27;;;;;;;5.57;3.22;;;19.40;99.90;;;;;;5092896;28;20195;-71
2022/07/05 07:52:53;;;;;;;5.10;3.13;;;19.50;99.90;;;;;;5094379;28;20204;-70
2022/07/05 07:55:19;;;;;;;5.88;3.10;;;19.50;99.90;;;;;;5093810;28;20185;-70
2022/07/05 07:57:44;;;;;;;3.70;2.58;;;19.60;99.90;;;;;;5092502;28;20193;-70
2022/07/05 08:00:11;;;;;;;5.53;3.15;;;19.50;99.90;;;;;;5094389;28;20169;-70
2022/07/05 08:02:36;;;;;;;4.60;2.42;;;19.60;99.90;;;;;;5093346;28;20612;-70
2022/07/05 08:05:04;;;;;;;5.45;2.50;;;19.70;99.90;;;;;;5093760;28;20184;-70
2022/07/05 08:07:30;;;;;;;2.72;2.53;;;19.70;99.90;;;;;;5093573;28;20208;-69
2022/07/05 08:09:56;;;;;;;4.20;2.63;;;19.90;99.90;;;;;;5094335;28;20634;-70
2022/07/05 08:12:22;;;;;;;3.97;2.60;;;20.00;99.90;;;;;;5096289;28;20173;-70
2022/07/05 08:14:48;;;;;;;4.20;2.60;;;20.10;99.90;;;;;;5096390;28;20192;-70
2022/07/05 08:17:13;;;;;;;6.88;2.75;;;20.20;99.90;;;;;;5097132;28;20216;-70
2022/07/05 08:22:23;;;;;;;4.90;2.45;;;20.50;99.90;;;;;;5097493;28;20267;-70
2022/07/05 08:24:49;;;;;;;5.50;2.63;;;20.70;99.90;;;;;;5097344;28;20626;-70
2022/07/05 08:27:15;;;;;;;5.10;2.40;;;20.70;99.90;;;;;;5097332;28;20567;-69
2022/07/05 08:29:42;;;;;;;6.28;2.50;;;20.70;99.90;;;;;;5097384;28;20165;-70
2022/07/05 08:32:08;;;;;;;4.25;2.75;;;20.70;99.90;;;;;;5096952;28;20222;-70
2022/07/05 08:34:34;;;;;;;4.53;2.38;;;20.50;99.90;;;;;;5097575;28;20181;-69
2022/07/05 08:37:00;;;;;;;6.75;3.00;;;20.40;99.90;;;;;;5096925;28;20173;-69
2022/07/05 08:39:26;;;;;;;2.70;2.40;;;20.40;99.90;;;;;;5096907;28;20699;-70
2022/07/05 08:41:54;;;;;;;8.32;2.45;;;20.40;99.90;;;;;;5096634;28;20239;-70
2022/07/05 08:44:21;;;;;;;3.85;2.45;;;20.50;99.90;;;;;;5097370;28;20683;-70
2022/07/05 08:46:52;;;;;;;4.35;2.28;;;20.60;99.90;;;;;;5096729;28;20203;-70
2022/07/05 08:49:24;;;;;;;4.85;2.17;;;20.70;99.90;;;;;;5096844;28;20173;-72
2022/07/05 08:51:50;;;;;;;3.60;2.30;;;20.90;99.90;;;;;;5095488;28;20169;-69
2022/07/05 08:54:16;;;;;;;9.35;2.75;;;20.80;99.90;;;;;;5096810;28;20176;-70
2022/07/05 08:56:43;;;;;;;3.90;2.50;;;20.90;99.90;;;;;;5096903;28;20184;-70
2022/07/05 08:59:09;;;;;;;5.70;2.55;;;20.90;99.90;;;;;;5096635;28;20193;-70
2022/07/05 09:01:36;;;;;;;5.75;2.70;;;20.90;99.90;;;;;;5094883;28;20205;-69
2022/07/05 09:04:07;;;;;;;3.17;2.10;;;21.00;99.90;;;;;;5096742;28;20173;-69
2022/07/05 09:06:37;;;;;;;2.75;2.20;;;21.10;99.90;;;;;;5095409;28;20200;-69
2022/07/05 09:09:03;;;;;;;2.17;1.77;;;21.30;99.90;;;;;;5095097;28;20197;-69
2022/07/05 09:11:39;;;;;;;4.25;2.33;;;21.40;99.90;;;;;;5096756;28;20184;-69
2022/07/05 09:14:18;;;;;;;6.57;2.72;;;21.80;99.90;;;;;;5096749;28;20168;-70
2022/07/05 09:16:44;;;;;;;6.50;2.13;;;22.00;99.90;;;;;;5096522;28;20574;-69
2022/07/05 09:19:10;;;;;;;6.57;2.05;;;21.90;99.90;;;;;;5096095;28;20213;-69
2022/07/05 09:21:36;;;;;;;4.53;1.83;;;21.90;99.90;;;;;;5094870;28;20212;-69
2022/07/05 09:24:07;;;;;;;3.53;1.90;;;21.80;99.90;;;;;;5096815;28;20173;-69
2022/07/05 09:26:44;;;;;;;2.17;1.88;;;21.60;99.90;;;;;;5096687;28;20169;-69
2022/07/05 09:29:12;;;;;;;3.30;1.80;;;21.40;99.90;;;;;;5095087;28;20196;-69
2022/07/05 09:31:40;;;;;;;3.30;2.30;;;21.30;99.90;;;;;;5095935;28;20173;-69
2022/07/05 09:34:14;;;;;;;4.18;2.42;;;21.10;99.90;;;;;;5096504;28;20173;-69
2022/07/05 09:37:01;;;;;;;3.22;2.20;;;21.00;99.90;;;;;;5096583;28;20161;-69
2022/07/05 09:39:30;;;;;;;3.30;2.33;;;20.80;99.90;;;;;;5097361;28;20541;-69
2022/07/05 09:42:23;;;;;;;2.97;1.98;;;20.90;99.90;;;;;;5099694;28;20219;-69
2022/07/05 09:44:54;;;;;;;4.80;2.13;;;21.10;99.90;;;;;;5096092;28;20629;-69
2022/07/05 09:47:21;;;;;;;3.35;1.88;;;21.60;99.90;;;;;;5093785;28;20197;-69
2022/07/05 09:49:52;;;;;;;2.95;2.20;;;22.00;99.90;;;;;;5095092;28;20225;-69
2022/07/05 09:52:29;;;;;;;3.17;2.28;;;22.40;99.90;;;;;;5094966;28;20172;-69
2022/07/05 09:55:16;;;;;;;4.47;2.20;;;22.70;99.90;;;;;;5093687;28;20253;-70
2022/07/05 09:57:43;;;;;;;2.88;1.80;;;23.00;99.90;;;;;;5093593;28;20249;-69
2022/07/05 10:00:15;;;;;;;2.75;1.90;;;22.90;99.90;;;;;;5094949;28;20179;-69
2022/07/05 10:02:47;;;;;;;4.97;2.40;;;22.70;99.90;;;;;;5094654;28;20749;-69
2022/07/05 10:05:24;;;;;;;1.85;1.70;;;22.40;99.90;;;;;;5094838;28;20559;-69
2022/07/05 10:07:51;;;;;;;3.03;2.13;;;22.00;99.90;;;;;;5093431;28;20573;-69
2022/07/05 10:10:18;;;;;;;3.00;2.05;;;21.70;99.90;;;;;;5094686;28;20591;-69
2022/07/05 10:12:46;;;;;;;5.80;2.65;;;21.60;99.90;;;;;;5093287;28;20177;-69
2022/07/05 10:15:15;;;;;;;3.97;2.45;;;21.40;99.90;;;;;;5094891;28;20195;-69
2022/07/05 10:17:58;;;;;;;4.05;2.38;;;21.40;99.90;;;;;;5094269;28;20246;-69
2022/07/05 10:20:41;;;;;;;9.10;3.05;;;21.50;99.90;;;;;;5094651;28;20642;-69
2022/07/05 10:23:15;;;;;;;5.55;2.80;;;21.50;99.90;;;;;;5094341;28;20291;-69
2022/07/05 10:25:44;;;;;;;7.53;2.70;;;21.30;99.90;;;;;;5093093;28;20536;-69
2022/07/05 10:28:10;;;;;;;2.88;2.40;;;21.20;99.90;;;;;;5094236;28;20189;-69
2022/07/05 10:30:37;;;;;;;3.97;2.08;;;21.20;99.90;;;;;;5094248;28;20169;-69
2022/07/05 10:33:04;;;;;;;3.90;2.38;;;21.10;99.90;;;;;;5093402;28;20184;-69
2022/07/05 10:35:30;;;;;;;6.38;2.80;;;21.10;99.90;;;;;;5094244;28;20169;-69
2022/07/05 10:37:58;;;;;;;4.50;2.33;;;21.40;99.90;;;;;;5092894;28;20258;-69
2022/07/05 10:40:24;;;;;;;3.78;2.75;;;21.90;99.90;;;;;;5094183;28;20188;-69
2022/07/05 10:42:55;;;;;;;3.60;2.60;;;22.20;99.90;;;;;;5093977;28;20197;-69
2022/07/05 10:45:48;;;;;;;4.30;2.58;;;22.20;99.90;;;;;;5092871;28;20192;-69
2022/07/05 10:48:24;;;;;;;3.97;2.90;;;22.40;99.90;;;;;;5088300;28;20296;-69
2022/07/05 10:50:54;;;;;;;4.43;2.83;;;22.50;99.90;;;;;;5092815;28;20161;-69
2022/07/05 10:53:21;;;;;;;7.20;2.92;;;22.50;99.90;;;;;;5092672;28;20226;-68
2022/07/05 10:55:50;;;;;;;5.60;3.00;;;22.50;99.90;;;;;;5093843;28;20208;-68
2022/07/05 10:58:16;;;;;;;2.75;2.42;;;22.50;99.90;;;;;;5093757;28;20185;-68
2022/07/05 11:00:43;;;;;;;3.50;2.50;;;22.30;99.90;;;;;;5094017;28;20686;-68
2022/07/05 11:03:32;;;;;;;2.30;2.10;;;22.70;99.90;;;;;;5092325;28;20322;-68
2022/07/05 11:05:59;;;;;;;4.10;2.05;;;23.30;99.90;;;;;;5093922;28;20173;-69
2022/07/05 11:08:24;;;;;;;2.95;2.30;;;23.30;99.90;;;;;;5092387;28;20201;-68
2022/07/05 11:11:10;;;;;;;4.00;2.60;;;22.90;99.90;;;;;;5093663;28;20175;-69
2022/07/05 11:13:37;;;;;;;4.40;2.50;;;22.40;99.90;;;;;;5092408;28;20184;-68
2022/07/05 11:16:23;;;;;;;3.90;2.40;;;22.10;99.90;;;;;;5093979;28;20209;-69
2022/07/05 11:19:04;;;;;;;4.38;2.45;;;22.00;99.90;;;;;;5097430;28;20684;-69
2022/07/05 11:21:30;;;;;;;5.43;2.80;;;22.00;99.90;;;;;;5114075;28;20192;-69
2022/07/05 11:24:23;;;;;;;3.28;2.50;;;22.00;99.90;;;;;;5114318;28;20196;-68
2022/07/05 11:26:52;;;;;;;3.22;2.13;;;22.20;99.90;;;;;;5114079;28;20206;-68
2022/07/05 11:29:43;;;;;;;2.30;2.10;;;22.40;99.90;;;;;;5113701;28;20662;-68
2022/07/05 11:32:11;;;;;;;3.75;2.15;;;22.80;99.90;;;;;;5113662;28;20172;-68
2022/07/05 11:34:37;;;;;;;3.38;2.28;;;23.00;99.90;;;;;;5113755;28;20177;-68
2022/07/05 11:37:26;;;;;;;3.70;2.33;;;22.80;99.90;;;;;;5112379;28;20552;-69
2022/07/05 11:40:09;;;;;;;4.15;2.60;;;23.10;99.90;;;;;;5112425;28;20169;-68
2022/07/05 11:42:48;;;;;;;4.32;2.20;;;23.40;99.90;;;;;;5113683;28;20188;-68
2022/07/05 11:45:14;;;;;;;3.17;2.33;;;23.40;99.90;;;;;;5115284;28;20692;-68
2022/07/05 11:47:41;;;;;;;2.78;2.10;;;23.40;99.90;;;;;;5117744;28;20743;-68
2022/07/05 11:50:08;;;;;;;3.35;2.30;;;23.30;99.90;;;;;;5117999;28;20242;-68
2022/07/05 11:52:36;;;;;;;6.10;2.40;;;23.10;99.90;;;;;;5118221;28;20632;-68
2022/07/05 11:55:04;;;;;;;2.65;2.30;;;22.90;99.90;;;;;;5117642;28;20183;-68
2022/07/05 11:57:30;;;;;;;2.95;2.00;;;22.70;99.90;;;;;;5116457;28;20214;-68
2022/07/05 11:59:55;;;;;;;3.72;2.35;;;22.50;99.90;;;;;;5117894;28;20173;-68
2022/07/05 12:02:21;;;;;;;5.65;2.42;;;22.40;99.90;;;;;;5116042;28;20200;-68
2022/07/05 12:04:52;;;;;;;2.58;2.10;;;22.50;99.90;;;;;;5116466;28;20637;-69
2022/07/05 12:07:48;;;;;;;3.63;2.30;;;22.50;99.90;;;;;;5116194;28;20192;-68
2022/07/05 12:13:06;;;;;;;3.00;2.08;;;23.00;99.90;;;;;;5117584;28;20168;-68
2022/07/05 12:15:32;;;;;;;3.50;1.95;;;23.10;99.90;;;;;;5116114;28;20225;-68
2022/07/05 12:18:03;;;;;;;5.18;2.05;;;23.10;99.90;;;;;;5117037;28;20216;-68
2022/07/05 12:20:30;;;;;;;4.18;1.75;;;23.50;99.90;;;;;;5116287;28;20256;-69
2022/07/05 12:22:55;;;;;;;2.28;1.55;;;23.40;99.90;;;;;;5117535;28;20554;-69
2022/07/05 12:25:23;;;;;;;3.85;2.10;;;23.00;99.90;;;;;;5118499;27;20164;-69
2022/07/05 12:27:51;;;;;;;6.00;2.05;;;22.80;99.90;;;;;;5117504;28;20195;-69
2022/07/05 12:30:18;;;;;;;4.65;1.70;;;22.60;99.90;;;;;;5116047;28;20179;-69
2022/07/05 12:32:53;;;;;;;4.65;1.90;;;22.90;99.90;;;;;;5116082;28;20180;-69
2022/07/05 12:35:33;;;;;;;2.13;1.92;;;23.80;99.90;;;;;;5116676;28;20180;-69
2022/07/05 12:38:07;;;;;;;4.05;1.80;;;24.60;99.90;;;;;;5116234;28;20192;-69
2022/07/05 12:40:35;;;;;;;1.95;1.73;;;25.20;99.90;;;;;;5118185;28;20240;-69
2022/07/05 12:43:06;;;;;;;4.97;1.70;;;25.30;99.90;;;;;;5117784;28;20192;-69
2022/07/05 12:45:32;;;;;;;3.72;2.00;;;24.60;99.90;;;;;;5116141;28;20165;-69
2022/07/05 12:48:01;;;;;;;2.47;1.90;;;24.00;99.90;;;;;;5115558;28;20192;-69
2022/07/05 12:50:43;;;;;;;3.60;1.77;;;23.50;99.90;;;;;;5117140;28;20234;-69
2022/07/05 12:58:54;;;;;;;3.45;2.03;;;23.10;99.90;;;;;;5117244;28;20249;-69
2022/07/05 13:01:37;;;;;;;2.97;2.00;;;23.80;99.90;;;;;;5117353;28;20180;-69
2022/07/05 13:04:08;;;;;;;3.85;1.92;;;23.80;99.90;;;;;;5117181;28;20520;-69